sensor_id;sensor_type;location;lat;lon;timestamp;P1;P2;P0
70436;PMS5003;57877;39.750;-104.894;2022-12-20T00:00:52;0;0;
70436;PMS5003;57877;39.750;-104.894;2022-12-20T00:03:17;0;0;
70436;PMS5003;57877;39.750;-104.894;2022-12-20T00:05:42;0;0;
70436;PMS5003;57877;39.750;-104.894;2022-12-20T00:08:07;0;0;
70436;PMS5003;57877;39.750;-104.894;2022-12-20T00:10:34;0;0;
70436;PMS5003;57877;39.750;-104.894;2022-12-20T00:12:57;0;0;
70436;PMS5003;57877;39.750;-104.894;2022-12-20T00:15:22;0;0;
70436;PMS5003;57877;39.750;-104.894;2022-12-20T00:17:47;0;0;
70436;PMS5003;57877;39.750;-104.894;2022-12-20T00:20:12;0;0;
70436;PMS5003;57877;39.750;-104.894;2022-12-20T00:22:37;0;0;
70436;PMS5003;57877;39.750;-104.894;2022-12-20T00:25:03;0;0;
70436;PMS5003;57877;39.750;-104.894;2022-12-20T00:27:28;0;0;
70436;PMS5003;57877;39.750;-104.894;2022-12-20T00:29:53;0;0;
70436;PMS5003;57877;39.750;-104.894;2022-12-20T00:32:18;0;0;
70436;PMS5003;57877;39.750;-104.894;2022-12-20T00:34:43;0;0;
70436;PMS5003;57877;39.750;-104.894;2022-12-20T00:37:08;0;0;
70436;PMS5003;57877;39.750;-104.894;2022-12-20T00:39:33;0;0;
70436;PMS5003;57877;39.750;-104.894;2022-12-20T00:41:58;0;0;
70436;PMS5003;57877;39.750;-104.894;2022-12-20T00:44:23;0;0;
70436;PMS5003;57877;39.750;-104.894;2022-12-20T00:46:48;0;0;
70436;PMS5003;57877;39.750;-104.894;2022-12-20T00:49:13;0;0;
70436;PMS5003;57877;39.750;-104.894;2022-12-20T00:51:39;2;2;
70436;PMS5003;57877;39.750;-104.894;2022-12-20T00:54:04;4;4;
70436;PMS5003;57877;39.750;-104.894;2022-12-20T00:56:29;0;0;
70436;PMS5003;57877;39.750;-104.894;2022-12-20T00:58:56;0;0;
70436;PMS5003;57877;39.750;-104.894;2022-12-20T01:01:20;0;0;
70436;PMS5003;57877;39.750;-104.894;2022-12-20T01:03:44;0;0;
70436;PMS5003;57877;39.750;-104.894;2022-12-20T01:06:09;0;0;
70436;PMS5003;57877;39.750;-104.894;2022-12-20T01:08:34;0;0;
70436;PMS5003;57877;39.750;-104.894;2022-12-20T01:11:00;0;0;
70436;PMS5003;57877;39.750;-104.894;2022-12-20T01:13:25;0;0;
70436;PMS5003;57877;39.750;-104.894;2022-12-20T01:15:50;0;0;
70436;PMS5003;57877;39.750;-104.894;2022-12-20T01:18:15;0;0;
70436;PMS5003;57877;39.750;-104.894;2022-12-20T01:20:40;0;0;
70436;PMS5003;57877;39.750;-104.894;2022-12-20T01:23:05;0;0;
70436;PMS5003;57877;39.750;-104.894;2022-12-20T01:25:30;0;0;
70436;PMS5003;57877;39.750;-104.894;2022-12-20T01:27:55;0;0;
70436;PMS5003;57877;39.750;-104.894;2022-12-20T01:30:20;0;0;
70436;PMS5003;57877;39.750;-104.894;2022-12-20T01:32:46;2;2;
70436;PMS5003;57877;39.750;-104.894;2022-12-20T01:35:11;2;2;
70436;PMS5003;57877;39.750;-104.894;2022-12-20T01:37:36;1;1;
70436;PMS5003;57877;39.750;-104.894;2022-12-20T01:40:01;0;0;
70436;PMS5003;57877;39.750;-104.894;2022-12-20T01:42:26;1;1;
70436;PMS5003;57877;39.750;-104.894;2022-12-20T01:44:56;0;0;
70436;PMS5003;57877;39.750;-104.894;2022-12-20T01:47:16;0;0;
70436;PMS5003;57877;39.750;-104.894;2022-12-20T01:49:43;2;2;
70436;PMS5003;57877;39.750;-104.894;2022-12-20T01:52:07;2;2;
70436;PMS5003;57877;39.750;-104.894;2022-12-20T01:54:32;0;0;
70436;PMS5003;57877;39.750;-104.894;2022-12-20T01:56:57;0;0;
70436;PMS5003;57877;39.750;-104.894;2022-12-20T01:59:22;3;2;
70436;PMS5003;57877;39.750;-104.894;2022-12-20T02:01:47;4;4;
70436;PMS5003;57877;39.750;-104.894;2022-12-20T02:04:12;3;3;
70436;PMS5003;57877;39.750;-104.894;2022-12-20T02:06:37;5;3;
70436;PMS5003;57877;39.750;-104.894;2022-12-20T02:09:03;4;2;
70436;PMS5003;57877;39.750;-104.894;2022-12-20T02:11:31;4;3;
70436;PMS5003;57877;39.750;-104.894;2022-12-20T02:13:55;3;3;
70436;PMS5003;57877;39.750;-104.894;2022-12-20T02:16:19;7;7;
70436;PMS5003;57877;39.750;-104.894;2022-12-20T02:18:44;7;7;
70436;PMS5003;57877;39.750;-104.894;2022-12-20T02:21:13;13;11;
70436;PMS5003;57877;39.750;-104.894;2022-12-20T02:23:40;19;16;
70436;PMS5003;57877;39.750;-104.894;2022-12-20T02:26:03;21;19;
70436;PMS5003;57877;39.750;-104.894;2022-12-20T02:28:29;3;3;
70436;PMS5003;57877;39.750;-104.894;2022-12-20T02:30:49;4;4;
70436;PMS5003;57877;39.750;-104.894;2022-12-20T02:33:14;3;2;
70436;PMS5003;57877;39.750;-104.894;2022-12-20T02:35:40;3;3;
70436;PMS5003;57877;39.750;-104.894;2022-12-20T02:40:31;4;3;
70436;PMS5003;57877;39.750;-104.894;2022-12-20T02:42:55;4;3;
70436;PMS5003;57877;39.750;-104.894;2022-12-20T02:45:20;3;3;
70436;PMS5003;57877;39.750;-104.894;2022-12-20T02:47:48;3;2;
70436;PMS5003;57877;39.750;-104.894;2022-12-20T02:50:10;4;4;
70436;PMS5003;57877;39.750;-104.894;2022-12-20T02:52:35;3;3;
70436;PMS5003;57877;39.750;-104.894;2022-12-20T02:55:00;2;2;
70436;PMS5003;57877;39.750;-104.894;2022-12-20T02:57:27;3;3;
70436;PMS5003;57877;39.750;-104.894;2022-12-20T02:59:54;5;4;
70436;PMS5003;57877;39.750;-104.894;2022-12-20T03:02:16;5;5;
70436;PMS5003;57877;39.750;-104.894;2022-12-20T03:04:41;6;5;
70436;PMS5003;57877;39.750;-104.894;2022-12-20T03:07:07;6;6;
70436;PMS5003;57877;39.750;-104.894;2022-12-20T03:09:32;8;7;
70436;PMS5003;57877;39.750;-104.894;2022-12-20T03:11:56;10;10;
70436;PMS5003;57877;39.750;-104.894;2022-12-20T03:14:22;6;5;
70436;PMS5003;57877;39.750;-104.894;2022-12-20T03:16:47;5;5;
70436;PMS5003;57877;39.750;-104.894;2022-12-20T03:19:12;9;7;
70436;PMS5003;57877;39.750;-104.894;2022-12-20T03:21:37;10;9;
70436;PMS5003;57877;39.750;-104.894;2022-12-20T03:24:02;8;8;
70436;PMS5003;57877;39.750;-104.894;2022-12-20T03:26:28;10;8;
70436;PMS5003;57877;39.750;-104.894;2022-12-20T03:28:52;7;7;
70436;PMS5003;57877;39.750;-104.894;2022-12-20T03:31:18;6;6;
70436;PMS5003;57877;39.750;-104.894;2022-12-20T03:33:43;7;7;
70436;PMS5003;57877;39.750;-104.894;2022-12-20T03:36:08;5;5;
70436;PMS5003;57877;39.750;-104.894;2022-12-20T03:38:33;6;6;
70436;PMS5003;57877;39.750;-104.894;2022-12-20T03:40:58;5;5;
70436;PMS5003;57877;39.750;-104.894;2022-12-20T03:43:24;6;6;
70436;PMS5003;57877;39.750;-104.894;2022-12-20T03:45:49;7;7;
70436;PMS5003;57877;39.750;-104.894;2022-12-20T03:48:14;8;7;
70436;PMS5003;57877;39.750;-104.894;2022-12-20T03:50:39;9;7;
70436;PMS5003;57877;39.750;-104.894;2022-12-20T03:53:04;7;7;
70436;PMS5003;57877;39.750;-104.894;2022-12-20T03:55:29;5;5;
70436;PMS5003;57877;39.750;-104.894;2022-12-20T03:57:54;6;5;
70436;PMS5003;57877;39.750;-104.894;2022-12-20T04:00:20;5;5;
70436;PMS5003;57877;39.750;-104.894;2022-12-20T04:02:45;6;6;
70436;PMS5003;57877;39.750;-104.894;2022-12-20T04:05:10;6;6;
70436;PMS5003;57877;39.750;-104.894;2022-12-20T04:07:36;3;3;
70436;PMS5003;57877;39.750;-104.894;2022-12-20T04:10:02;2;1;
70436;PMS5003;57877;39.750;-104.894;2022-12-20T04:12:27;3;2;
70436;PMS5003;57877;39.750;-104.894;2022-12-20T04:14:52;3;3;
70436;PMS5003;57877;39.750;-104.894;2022-12-20T04:17:17;4;4;
70436;PMS5003;57877;39.750;-104.894;2022-12-20T04:19:42;4;3;
70436;PMS5003;57877;39.750;-104.894;2022-12-20T04:22:07;3;2;
70436;PMS5003;57877;39.750;-104.894;2022-12-20T04:24:32;3;3;
70436;PMS5003;57877;39.750;-104.894;2022-12-20T04:26:57;3;3;
70436;PMS5003;57877;39.750;-104.894;2022-12-20T04:29:23;3;3;
70436;PMS5003;57877;39.750;-104.894;2022-12-20T04:31:48;4;4;
70436;PMS5003;57877;39.750;-104.894;2022-12-20T04:34:13;4;3;
70436;PMS5003;57877;39.750;-104.894;2022-12-20T04:36:38;3;3;
70436;PMS5003;57877;39.750;-104.894;2022-12-20T04:39:03;3;3;
70436;PMS5003;57877;39.750;-104.894;2022-12-20T04:41:28;4;3;
70436;PMS5003;57877;39.750;-104.894;2022-12-20T04:43:54;3;3;
70436;PMS5003;57877;39.750;-104.894;2022-12-20T04:46:19;4;4;
70436;PMS5003;57877;39.750;-104.894;2022-12-20T04:48:44;3;3;
70436;PMS5003;57877;39.750;-104.894;2022-12-20T04:51:09;3;3;
70436;PMS5003;57877;39.750;-104.894;2022-12-20T04:53:34;2;2;
70436;PMS5003;57877;39.750;-104.894;2022-12-20T04:55:59;3;3;
70436;PMS5003;57877;39.750;-104.894;2022-12-20T04:58:24;4;4;
70436;PMS5003;57877;39.750;-104.894;2022-12-20T05:00:50;5;4;
70436;PMS5003;57877;39.750;-104.894;2022-12-20T05:03:15;4;4;
70436;PMS5003;57877;39.750;-104.894;2022-12-20T05:05:40;5;3;
70436;PMS5003;57877;39.750;-104.894;2022-12-20T05:08:05;4;4;
70436;PMS5003;57877;39.750;-104.894;2022-12-20T05:10:30;4;3;
70436;PMS5003;57877;39.750;-104.894;2022-12-20T05:12:56;3;3;
70436;PMS5003;57877;39.750;-104.894;2022-12-20T05:15:21;4;4;
70436;PMS5003;57877;39.750;-104.894;2022-12-20T05:17:46;3;3;
70436;PMS5003;57877;39.750;-104.894;2022-12-20T05:20:11;5;5;
70436;PMS5003;57877;39.750;-104.894;2022-12-20T05:22:36;4;4;
70436;PMS5003;57877;39.750;-104.894;2022-12-20T05:25:01;6;5;
70436;PMS5003;57877;39.750;-104.894;2022-12-20T05:27:26;5;4;
70436;PMS5003;57877;39.750;-104.894;2022-12-20T05:29:52;5;5;
70436;PMS5003;57877;39.750;-104.894;2022-12-20T05:32:17;4;4;
70436;PMS5003;57877;39.750;-104.894;2022-12-20T05:34:42;2;2;
70436;PMS5003;57877;39.750;-104.894;2022-12-20T05:37:07;3;3;
70436;PMS5003;57877;39.750;-104.894;2022-12-20T05:39:32;3;3;
70436;PMS5003;57877;39.750;-104.894;2022-12-20T05:41:57;5;4;
70436;PMS5003;57877;39.750;-104.894;2022-12-20T05:44:23;4;4;
70436;PMS5003;57877;39.750;-104.894;2022-12-20T05:46:48;3;2;
70436;PMS5003;57877;39.750;-104.894;2022-12-20T05:49:13;4;4;
70436;PMS5003;57877;39.750;-104.894;2022-12-20T05:51:38;3;3;
70436;PMS5003;57877;39.750;-104.894;2022-12-20T05:54:03;1;1;
70436;PMS5003;57877;39.750;-104.894;2022-12-20T05:56:28;2;2;
70436;PMS5003;57877;39.750;-104.894;2022-12-20T05:58:53;0;0;
70436;PMS5003;57877;39.750;-104.894;2022-12-20T06:01:19;1;1;
70436;PMS5003;57877;39.750;-104.894;2022-12-20T06:03:44;0;0;
70436;PMS5003;57877;39.750;-104.894;2022-12-20T06:06:09;0;0;
70436;PMS5003;57877;39.750;-104.894;2022-12-20T06:08:34;0;0;
70436;PMS5003;57877;39.750;-104.894;2022-12-20T06:10:59;0;0;
70436;PMS5003;57877;39.750;-104.894;2022-12-20T06:13:24;0;0;
70436;PMS5003;57877;39.750;-104.894;2022-12-20T06:15:50;0;0;
70436;PMS5003;57877;39.750;-104.894;2022-12-20T06:18:15;0;0;
70436;PMS5003;57877;39.750;-104.894;2022-12-20T06:20:40;0;0;
70436;PMS5003;57877;39.750;-104.894;2022-12-20T06:23:05;0;0;
70436;PMS5003;57877;39.750;-104.894;2022-12-20T06:25:30;1;0;
70436;PMS5003;57877;39.750;-104.894;2022-12-20T06:27:56;0;0;
70436;PMS5003;57877;39.750;-104.894;2022-12-20T06:30:21;0;0;
70436;PMS5003;57877;39.750;-104.894;2022-12-20T06:32:46;0;0;
70436;PMS5003;57877;39.750;-104.894;2022-12-20T06:35:11;0;0;
70436;PMS5003;57877;39.750;-104.894;2022-12-20T06:37:36;1;1;
70436;PMS5003;57877;39.750;-104.894;2022-12-20T06:40:02;0;0;
70436;PMS5003;57877;39.750;-104.894;2022-12-20T06:42:27;1;0;
70436;PMS5003;57877;39.750;-104.894;2022-12-20T06:44:52;0;0;
70436;PMS5003;57877;39.750;-104.894;2022-12-20T06:47:17;0;0;
70436;PMS5003;57877;39.750;-104.894;2022-12-20T06:49:42;0;0;
70436;PMS5003;57877;39.750;-104.894;2022-12-20T06:52:07;0;0;
70436;PMS5003;57877;39.750;-104.894;2022-12-20T06:54:33;0;0;
70436;PMS5003;57877;39.750;-104.894;2022-12-20T06:56:58;0;0;
70436;PMS5003;57877;39.750;-104.894;2022-12-20T06:59:23;0;0;
70436;PMS5003;57877;39.750;-104.894;2022-12-20T07:01:48;0;0;
70436;PMS5003;57877;39.750;-104.894;2022-12-20T07:04:13;0;0;
70436;PMS5003;57877;39.750;-104.894;2022-12-20T07:06:39;1;1;
70436;PMS5003;57877;39.750;-104.894;2022-12-20T07:09:04;0;0;
70436;PMS5003;57877;39.750;-104.894;2022-12-20T07:11:29;0;0;
70436;PMS5003;57877;39.750;-104.894;2022-12-20T07:13:54;0;0;
70436;PMS5003;57877;39.750;-104.894;2022-12-20T07:16:19;0;0;
70436;PMS5003;57877;39.750;-104.894;2022-12-20T07:18:48;0;0;
70436;PMS5003;57877;39.750;-104.894;2022-12-20T07:21:10;0;0;
70436;PMS5003;57877;39.750;-104.894;2022-12-20T07:23:35;0;0;
70436;PMS5003;57877;39.750;-104.894;2022-12-20T07:26:00;0;0;
70436;PMS5003;57877;39.750;-104.894;2022-12-20T07:28:26;0;0;
70436;PMS5003;57877;39.750;-104.894;2022-12-20T07:30:50;0;0;
70436;PMS5003;57877;39.750;-104.894;2022-12-20T07:33:16;0;0;
70436;PMS5003;57877;39.750;-104.894;2022-12-20T07:35:41;0;0;
70436;PMS5003;57877;39.750;-104.894;2022-12-20T07:38:06;1;1;
70436;PMS5003;57877;39.750;-104.894;2022-12-20T07:40:31;0;0;
70436;PMS5003;57877;39.750;-104.894;2022-12-20T07:42:56;1;0;
70436;PMS5003;57877;39.750;-104.894;2022-12-20T07:45:21;0;0;
70436;PMS5003;57877;39.750;-104.894;2022-12-20T07:47:46;0;0;
70436;PMS5003;57877;39.750;-104.894;2022-12-20T07:50:12;2;0;
70436;PMS5003;57877;39.750;-104.894;2022-12-20T07:52:37;0;0;
70436;PMS5003;57877;39.750;-104.894;2022-12-20T07:55:03;0;0;
70436;PMS5003;57877;39.750;-104.894;2022-12-20T07:57:28;0;0;
70436;PMS5003;57877;39.750;-104.894;2022-12-20T07:59:53;0;0;
70436;PMS5003;57877;39.750;-104.894;2022-12-20T08:02:18;0;0;
70436;PMS5003;57877;39.750;-104.894;2022-12-20T08:04:43;0;0;
70436;PMS5003;57877;39.750;-104.894;2022-12-20T08:07:08;0;0;
70436;PMS5003;57877;39.750;-104.894;2022-12-20T08:09:34;0;0;
70436;PMS5003;57877;39.750;-104.894;2022-12-20T08:11:59;0;0;
70436;PMS5003;57877;39.750;-104.894;2022-12-20T08:14:24;0;0;
70436;PMS5003;57877;39.750;-104.894;2022-12-20T08:16:49;0;0;
70436;PMS5003;57877;39.750;-104.894;2022-12-20T08:19:14;0;0;
70436;PMS5003;57877;39.750;-104.894;2022-12-20T08:21:39;0;0;
70436;PMS5003;57877;39.750;-104.894;2022-12-20T08:24:05;0;0;
70436;PMS5003;57877;39.750;-104.894;2022-12-20T08:26:30;0;0;
70436;PMS5003;57877;39.750;-104.894;2022-12-20T08:28:55;0;0;
70436;PMS5003;57877;39.750;-104.894;2022-12-20T08:31:20;0;0;
70436;PMS5003;57877;39.750;-104.894;2022-12-20T08:33:45;0;0;
70436;PMS5003;57877;39.750;-104.894;2022-12-20T08:36:11;0;0;
70436;PMS5003;57877;39.750;-104.894;2022-12-20T08:38:36;0;0;
70436;PMS5003;57877;39.750;-104.894;2022-12-20T08:41:01;0;0;
70436;PMS5003;57877;39.750;-104.894;2022-12-20T08:43:26;0;0;
70436;PMS5003;57877;39.750;-104.894;2022-12-20T08:45:52;0;0;
70436;PMS5003;57877;39.750;-104.894;2022-12-20T08:48:17;0;0;
70436;PMS5003;57877;39.750;-104.894;2022-12-20T08:50:42;0;0;
70436;PMS5003;57877;39.750;-104.894;2022-12-20T08:53:07;0;0;
70436;PMS5003;57877;39.750;-104.894;2022-12-20T08:55:32;0;0;
70436;PMS5003;57877;39.750;-104.894;2022-12-20T08:57:57;0;0;
70436;PMS5003;57877;39.750;-104.894;2022-12-20T09:00:23;0;0;
70436;PMS5003;57877;39.750;-104.894;2022-12-20T09:02:48;0;0;
70436;PMS5003;57877;39.750;-104.894;2022-12-20T09:05:13;0;0;
70436;PMS5003;57877;39.750;-104.894;2022-12-20T09:07:38;0;0;
70436;PMS5003;57877;39.750;-104.894;2022-12-20T09:10:04;0;0;
70436;PMS5003;57877;39.750;-104.894;2022-12-20T09:12:29;0;0;
70436;PMS5003;57877;39.750;-104.894;2022-12-20T09:14:54;0;0;
70436;PMS5003;57877;39.750;-104.894;2022-12-20T09:17:19;0;0;
70436;PMS5003;57877;39.750;-104.894;2022-12-20T09:19:44;0;0;
70436;PMS5003;57877;39.750;-104.894;2022-12-20T09:22:09;2;2;
70436;PMS5003;57877;39.750;-104.894;2022-12-20T09:24:36;0;0;
70436;PMS5003;57877;39.750;-104.894;2022-12-20T09:27:00;0;0;
70436;PMS5003;57877;39.750;-104.894;2022-12-20T09:29:25;0;0;
70436;PMS5003;57877;39.750;-104.894;2022-12-20T09:31:50;0;0;
70436;PMS5003;57877;39.750;-104.894;2022-12-20T09:34:15;0;0;
70436;PMS5003;57877;39.750;-104.894;2022-12-20T09:36:41;0;0;
70436;PMS5003;57877;39.750;-104.894;2022-12-20T09:39:06;0;0;
70436;PMS5003;57877;39.750;-104.894;2022-12-20T09:41:36;0;0;
70436;PMS5003;57877;39.750;-104.894;2022-12-20T09:43:56;0;0;
70436;PMS5003;57877;39.750;-104.894;2022-12-20T09:46:21;0;0;
70436;PMS5003;57877;39.750;-104.894;2022-12-20T09:48:46;0;0;
70436;PMS5003;57877;39.750;-104.894;2022-12-20T09:51:15;0;0;
70436;PMS5003;57877;39.750;-104.894;2022-12-20T09:53:40;0;0;
70436;PMS5003;57877;39.750;-104.894;2022-12-20T09:56:04;0;0;
70436;PMS5003;57877;39.750;-104.894;2022-12-20T09:58:31;0;0;
70436;PMS5003;57877;39.750;-104.894;2022-12-20T10:00:53;0;0;
70436;PMS5003;57877;39.750;-104.894;2022-12-20T10:03:19;0;0;
70436;PMS5003;57877;39.750;-104.894;2022-12-20T10:05:44;0;0;
70436;PMS5003;57877;39.750;-104.894;2022-12-20T10:08:11;0;0;
70436;PMS5003;57877;39.750;-104.894;2022-12-20T10:10:38;0;0;
70436;PMS5003;57877;39.750;-104.894;2022-12-20T10:13:00;0;0;
70436;PMS5003;57877;39.750;-104.894;2022-12-20T10:15:25;0;0;
70436;PMS5003;57877;39.750;-104.894;2022-12-20T10:17:52;0;0;
70436;PMS5003;57877;39.750;-104.894;2022-12-20T10:20:18;0;0;
70436;PMS5003;57877;39.750;-104.894;2022-12-20T10:22:41;0;0;
70436;PMS5003;57877;39.750;-104.894;2022-12-20T10:27:30;0;0;
70436;PMS5003;57877;39.750;-104.894;2022-12-20T10:29:55;0;0;
70436;PMS5003;57877;39.750;-104.894;2022-12-20T10:32:21;0;0;
70436;PMS5003;57877;39.750;-104.894;2022-12-20T10:34:49;0;0;
70436;PMS5003;57877;39.750;-104.894;2022-12-20T10:37:11;0;0;
70436;PMS5003;57877;39.750;-104.894;2022-12-20T10:39:39;0;0;
70436;PMS5003;57877;39.750;-104.894;2022-12-20T10:42:01;0;0;
70436;PMS5003;57877;39.750;-104.894;2022-12-20T10:44:26;0;0;
70436;PMS5003;57877;39.750;-104.894;2022-12-20T10:46:51;0;0;
70436;PMS5003;57877;39.750;-104.894;2022-12-20T10:49:21;0;0;
70436;PMS5003;57877;39.750;-104.894;2022-12-20T10:51:41;0;0;
70436;PMS5003;57877;39.750;-104.894;2022-12-20T10:54:19;0;0;
70436;PMS5003;57877;39.750;-104.894;2022-12-20T10:56:32;0;0;
70436;PMS5003;57877;39.750;-104.894;2022-12-20T10:58:57;0;0;
70436;PMS5003;57877;39.750;-104.894;2022-12-20T11:01:24;0;0;
70436;PMS5003;57877;39.750;-104.894;2022-12-20T11:03:52;0;0;
70436;PMS5003;57877;39.750;-104.894;2022-12-20T11:06:14;0;0;
70436;PMS5003;57877;39.750;-104.894;2022-12-20T11:08:38;0;0;
70436;PMS5003;57877;39.750;-104.894;2022-12-20T11:13:28;0;0;
70436;PMS5003;57877;39.750;-104.894;2022-12-20T11:15:54;0;0;
70436;PMS5003;57877;39.750;-104.894;2022-12-20T11:18:19;0;0;
70436;PMS5003;57877;39.750;-104.894;2022-12-20T11:20:44;0;0;
70436;PMS5003;57877;39.750;-104.894;2022-12-20T11:23:12;0;0;
70436;PMS5003;57877;39.750;-104.894;2022-12-20T11:25:41;0;0;
70436;PMS5003;57877;39.750;-104.894;2022-12-20T11:28:04;0;0;
70436;PMS5003;57877;39.750;-104.894;2022-12-20T11:30:26;0;0;
70436;PMS5003;57877;39.750;-104.894;2022-12-20T11:32:54;0;0;
70436;PMS5003;57877;39.750;-104.894;2022-12-20T11:35:16;0;0;
70436;PMS5003;57877;39.750;-104.894;2022-12-20T11:37:43;0;0;
70436;PMS5003;57877;39.750;-104.894;2022-12-20T11:40:09;0;0;
70436;PMS5003;57877;39.750;-104.894;2022-12-20T11:42:34;0;0;
70436;PMS5003;57877;39.750;-104.894;2022-12-20T11:44:58;0;0;
70436;PMS5003;57877;39.750;-104.894;2022-12-20T11:47:26;0;0;
70436;PMS5003;57877;39.750;-104.894;2022-12-20T11:49:49;0;0;
70436;PMS5003;57877;39.750;-104.894;2022-12-20T11:52:13;0;0;
70436;PMS5003;57877;39.750;-104.894;2022-12-20T11:54:38;0;0;
70436;PMS5003;57877;39.750;-104.894;2022-12-20T11:57:03;0;0;
70436;PMS5003;57877;39.750;-104.894;2022-12-20T11:59:29;0;0;
70436;PMS5003;57877;39.750;-104.894;2022-12-20T12:01:54;0;0;
70436;PMS5003;57877;39.750;-104.894;2022-12-20T12:04:18;0;0;
70436;PMS5003;57877;39.750;-104.894;2022-12-20T12:06:43;0;0;
70436;PMS5003;57877;39.750;-104.894;2022-12-20T12:09:11;0;0;
70436;PMS5003;57877;39.750;-104.894;2022-12-20T12:11:34;0;0;
70436;PMS5003;57877;39.750;-104.894;2022-12-20T12:13:59;0;0;
70436;PMS5003;57877;39.750;-104.894;2022-12-20T12:16:24;0;0;
70436;PMS5003;57877;39.750;-104.894;2022-12-20T12:18:48;0;0;
70436;PMS5003;57877;39.750;-104.894;2022-12-20T12:21:15;0;0;
70436;PMS5003;57877;39.750;-104.894;2022-12-20T12:23:41;0;0;
70436;PMS5003;57877;39.750;-104.894;2022-12-20T12:26:08;0;0;
70436;PMS5003;57877;39.750;-104.894;2022-12-20T12:28:29;0;0;
70436;PMS5003;57877;39.750;-104.894;2022-12-20T12:30:55;0;0;
70436;PMS5003;57877;39.750;-104.894;2022-12-20T12:33:21;0;0;
70436;PMS5003;57877;39.750;-104.894;2022-12-20T12:35:49;0;0;
70436;PMS5003;57877;39.750;-104.894;2022-12-20T12:38:15;0;0;
70436;PMS5003;57877;39.750;-104.894;2022-12-20T12:43:05;0;0;
70436;PMS5003;57877;39.750;-104.894;2022-12-20T12:45:26;0;0;
70436;PMS5003;57877;39.750;-104.894;2022-12-20T12:47:52;0;0;
70436;PMS5003;57877;39.750;-104.894;2022-12-20T12:50:20;0;0;
70436;PMS5003;57877;39.750;-104.894;2022-12-20T12:52:42;0;0;
70436;PMS5003;57877;39.750;-104.894;2022-12-20T12:57:33;0;0;
70436;PMS5003;57877;39.750;-104.894;2022-12-20T12:59:57;0;0;
70436;PMS5003;57877;39.750;-104.894;2022-12-20T13:02:26;0;0;
70436;PMS5003;57877;39.750;-104.894;2022-12-20T13:09:39;0;0;
70436;PMS5003;57877;39.750;-104.894;2022-12-20T13:16:54;0;0;
70436;PMS5003;57877;39.750;-104.894;2022-12-20T13:19:28;0;0;
70436;PMS5003;57877;39.750;-104.894;2022-12-20T13:21:44;0;0;
70436;PMS5003;57877;39.750;-104.894;2022-12-20T13:33:50;0;0;
70436;PMS5003;57877;39.750;-104.894;2022-12-20T13:43:32;0;0;
70436;PMS5003;57877;39.750;-104.894;2022-12-20T13:45:56;0;0;
70436;PMS5003;57877;39.750;-104.894;2022-12-20T13:48:21;0;0;
70436;PMS5003;57877;39.750;-104.894;2022-12-20T13:50:46;0;0;
70436;PMS5003;57877;39.750;-104.894;2022-12-20T13:53:15;0;0;
70436;PMS5003;57877;39.750;-104.894;2022-12-20T13:55:37;0;0;
70436;PMS5003;57877;39.750;-104.894;2022-12-20T13:58:04;0;0;
70436;PMS5003;57877;39.750;-104.894;2022-12-20T14:00:27;0;0;
70436;PMS5003;57877;39.750;-104.894;2022-12-20T14:02:52;0;0;
70436;PMS5003;57877;39.750;-104.894;2022-12-20T14:05:19;0;0;
70436;PMS5003;57877;39.750;-104.894;2022-12-20T14:07:44;0;0;
70436;PMS5003;57877;39.750;-104.894;2022-12-20T14:12:33;0;0;
70436;PMS5003;57877;39.750;-104.894;2022-12-20T14:14:58;0;0;
70436;PMS5003;57877;39.750;-104.894;2022-12-20T14:17:24;0;0;
70436;PMS5003;57877;39.750;-104.894;2022-12-20T14:22:14;0;0;
70436;PMS5003;57877;39.750;-104.894;2022-12-20T14:24:39;0;0;
70436;PMS5003;57877;39.750;-104.894;2022-12-20T14:27:04;1;1;
70436;PMS5003;57877;39.750;-104.894;2022-12-20T14:29:29;0;0;
70436;PMS5003;57877;39.750;-104.894;2022-12-20T14:31:55;0;0;
70436;PMS5003;57877;39.750;-104.894;2022-12-20T14:34:21;0;0;
70436;PMS5003;57877;39.750;-104.894;2022-12-20T14:36:45;0;0;
70436;PMS5003;57877;39.750;-104.894;2022-12-20T14:41:37;0;0;
70436;PMS5003;57877;39.750;-104.894;2022-12-20T14:44:02;0;0;
70436;PMS5003;57877;39.750;-104.894;2022-12-20T14:46:26;0;0;
70436;PMS5003;57877;39.750;-104.894;2022-12-20T14:51:18;0;0;
70436;PMS5003;57877;39.750;-104.894;2022-12-20T14:53:43;0;0;
70436;PMS5003;57877;39.750;-104.894;2022-12-20T14:58:32;2;2;
70436;PMS5003;57877;39.750;-104.894;2022-12-20T15:00:58;1;0;
70436;PMS5003;57877;39.750;-104.894;2022-12-20T15:03:23;2;1;
70436;PMS5003;57877;39.750;-104.894;2022-12-20T15:05:48;1;1;
70436;PMS5003;57877;39.750;-104.894;2022-12-20T15:08:13;1;1;
70436;PMS5003;57877;39.750;-104.894;2022-12-20T15:10:38;2;2;
70436;PMS5003;57877;39.750;-104.894;2022-12-20T15:13:03;1;1;
70436;PMS5003;57877;39.750;-104.894;2022-12-20T15:15:28;2;1;
70436;PMS5003;57877;39.750;-104.894;2022-12-20T15:17:53;0;0;
70436;PMS5003;57877;39.750;-104.894;2022-12-20T15:20:18;1;1;
70436;PMS5003;57877;39.750;-104.894;2022-12-20T15:22:43;2;2;
70436;PMS5003;57877;39.750;-104.894;2022-12-20T15:25:10;3;3;
70436;PMS5003;57877;39.750;-104.894;2022-12-20T15:27:34;2;2;
70436;PMS5003;57877;39.750;-104.894;2022-12-20T15:29:59;2;2;
70436;PMS5003;57877;39.750;-104.894;2022-12-20T15:32:25;1;1;
70436;PMS5003;57877;39.750;-104.894;2022-12-20T15:34:49;1;1;
70436;PMS5003;57877;39.750;-104.894;2022-12-20T15:37:14;1;1;
70436;PMS5003;57877;39.750;-104.894;2022-12-20T15:39:40;0;0;
70436;PMS5003;57877;39.750;-104.894;2022-12-20T15:42:05;2;1;
70436;PMS5003;57877;39.750;-104.894;2022-12-20T15:44:30;1;1;
70436;PMS5003;57877;39.750;-104.894;2022-12-20T15:46:55;0;0;
70436;PMS5003;57877;39.750;-104.894;2022-12-20T15:49:21;1;1;
70436;PMS5003;57877;39.750;-104.894;2022-12-20T15:51:46;0;0;
70436;PMS5003;57877;39.750;-104.894;2022-12-20T15:54:14;0;0;
70436;PMS5003;57877;39.750;-104.894;2022-12-20T15:56:35;0;0;
70436;PMS5003;57877;39.750;-104.894;2022-12-20T15:59:00;0;0;
70436;PMS5003;57877;39.750;-104.894;2022-12-20T16:01:26;0;0;
70436;PMS5003;57877;39.750;-104.894;2022-12-20T16:03:51;0;0;
70436;PMS5003;57877;39.750;-104.894;2022-12-20T16:06:16;0;0;
70436;PMS5003;57877;39.750;-104.894;2022-12-20T16:08:41;0;0;
70436;PMS5003;57877;39.750;-104.894;2022-12-20T16:11:09;0;0;
70436;PMS5003;57877;39.750;-104.894;2022-12-20T16:13:31;0;0;
70436;PMS5003;57877;39.750;-104.894;2022-12-20T16:15:56;0;0;
70436;PMS5003;57877;39.750;-104.894;2022-12-20T16:18:21;0;0;
70436;PMS5003;57877;39.750;-104.894;2022-12-20T16:20:46;0;0;
70436;PMS5003;57877;39.750;-104.894;2022-12-20T16:23:13;0;0;
70436;PMS5003;57877;39.750;-104.894;2022-12-20T16:25:37;0;0;
70436;PMS5003;57877;39.750;-104.894;2022-12-20T16:28:02;0;0;
70436;PMS5003;57877;39.750;-104.894;2022-12-20T16:30:27;1;1;
70436;PMS5003;57877;39.750;-104.894;2022-12-20T16:32:52;0;0;
70436;PMS5003;57877;39.750;-104.894;2022-12-20T16:35:22;0;0;
70436;PMS5003;57877;39.750;-104.894;2022-12-20T16:37:42;0;0;